createdAt,value
2019-03-31T00:00:20.550Z,1016.65
2019-03-31T00:01:19.798Z,1016.68
2019-03-31T00:02:19.795Z,1016.66
2019-03-31T00:03:19.780Z,1016.63
2019-03-31T00:04:19.780Z,1016.66
2019-03-31T00:05:19.780Z,1016.65
2019-03-31T00:06:19.830Z,1016.62
2019-03-31T00:07:19.742Z,1016.61
2019-03-31T00:08:19.746Z,1016.64
2019-03-31T00:09:19.733Z,1016.61
2019-03-31T00:10:19.729Z,1016.61
2019-03-31T00:11:19.698Z,1016.64
2019-03-31T00:12:19.683Z,1016.62
2019-03-31T00:13:19.678Z,1016.61
2019-03-31T00:14:19.667Z,1016.63
2019-03-31T00:15:19.685Z,1016.56
2019-03-31T00:16:19.638Z,1016.60
2019-03-31T00:17:19.633Z,1016.63
2019-03-31T00:18:19.624Z,1016.64
2019-03-31T00:19:19.611Z,1016.60
2019-03-31T00:20:19.621Z,1016.58
2019-03-31T00:21:19.589Z,1016.58
2019-03-31T00:22:19.629Z,1016.60
2019-03-31T00:23:19.566Z,1016.57
2019-03-31T00:24:20.583Z,1016.59
2019-03-31T00:25:19.575Z,1016.59
2019-03-31T00:26:19.539Z,1016.65
2019-03-31T00:27:19.525Z,1016.63
2019-03-31T00:28:19.513Z,1016.65
2019-03-31T00:29:19.502Z,1016.66
2019-03-31T00:30:19.491Z,1016.67
2019-03-31T00:31:22.233Z,1016.66
2019-03-31T00:32:19.471Z,1016.66
2019-03-31T00:33:19.464Z,1016.67
2019-03-31T00:34:19.457Z,1016.68
2019-03-31T00:35:19.439Z,1016.69
2019-03-31T00:36:19.462Z,1016.64
2019-03-31T00:37:19.419Z,1016.64
2019-03-31T00:38:19.405Z,1016.66
2019-03-31T00:39:19.407Z,1016.64
2019-03-31T00:40:19.387Z,1016.64
2019-03-31T00:41:19.393Z,1016.60
2019-03-31T00:42:19.364Z,1016.56
2019-03-31T00:43:19.357Z,1016.57
2019-03-31T00:44:19.344Z,1016.56
2019-03-31T00:45:19.333Z,1016.53
2019-03-31T00:46:19.363Z,1016.63
2019-03-31T00:47:19.313Z,1016.58
2019-03-31T00:48:19.307Z,1016.59
2019-03-31T00:49:19.292Z,1016.60
2019-03-31T00:50:19.281Z,1016.54
2019-03-31T00:51:19.270Z,1016.61
2019-03-31T00:52:19.277Z,1016.59
2019-03-31T00:53:19.248Z,1016.65
2019-03-31T00:54:19.238Z,1016.57
2019-03-31T00:55:19.229Z,1016.63
2019-03-31T00:56:19.216Z,1016.57
2019-03-31T00:57:19.237Z,1016.58
2019-03-31T00:58:19.202Z,1016.50
2019-03-31T00:59:19.188Z,1016.60
2019-03-31T01:00:19.174Z,1016.59
2019-03-31T01:01:19.164Z,1016.62
2019-03-31T01:02:19.173Z,1016.58
2019-03-31T01:03:19.144Z,1016.57
2019-03-31T01:04:19.134Z,1016.55
2019-03-31T01:05:19.122Z,1016.55
2019-03-31T01:06:19.114Z,1016.54
2019-03-31T01:07:19.127Z,1016.55
2019-03-31T01:08:19.090Z,1016.53
2019-03-31T01:09:19.080Z,1016.50
2019-03-31T01:10:19.072Z,1016.57
2019-03-31T01:11:19.058Z,1016.56
2019-03-31T01:12:19.077Z,1016.58
2019-03-31T01:13:19.049Z,1016.51
2019-03-31T01:14:19.027Z,1016.52
2019-03-31T01:15:19.016Z,1016.52
2019-03-31T01:16:19.007Z,1016.56
2019-03-31T01:17:19.264Z,1016.59
2019-03-31T01:18:18.996Z,1016.55
2019-03-31T01:19:18.976Z,1016.57
2019-03-31T01:20:18.964Z,1016.58
2019-03-31T01:21:18.953Z,1016.57
2019-03-31T01:22:18.943Z,1016.56
2019-03-31T01:23:18.951Z,1016.60
2019-03-31T01:24:18.926Z,1016.58
2019-03-31T01:25:18.911Z,1016.54
2019-03-31T01:26:18.900Z,1016.59
2019-03-31T01:27:18.914Z,1016.56
2019-03-31T01:28:18.879Z,1016.53
2019-03-31T01:29:18.870Z,1016.61
2019-03-31T01:30:18.859Z,1016.56
2019-03-31T01:31:18.846Z,1016.61
2019-03-31T01:32:18.856Z,1016.61
2019-03-31T01:33:18.827Z,1016.60
2019-03-31T01:34:18.816Z,1016.61
2019-03-31T01:35:18.806Z,1016.61
2019-03-31T01:36:18.802Z,1016.65
2019-03-31T01:37:20.333Z,1016.66
2019-03-31T01:38:18.774Z,1016.65
2019-03-31T01:39:18.764Z,1016.66
2019-03-31T01:40:18.752Z,1016.59
2019-03-31T01:41:18.743Z,1016.59
2019-03-31T01:42:18.753Z,1016.60
2019-03-31T01:43:18.722Z,1016.64
2019-03-31T01:44:18.711Z,1016.61
2019-03-31T01:45:18.711Z,1016.64
2019-03-31T01:46:18.690Z,1016.64
2019-03-31T01:47:18.698Z,1016.64
2019-03-31T01:48:18.678Z,1016.66
2019-03-31T01:49:18.656Z,1016.65
2019-03-31T01:50:18.652Z,1016.70
2019-03-31T01:51:18.637Z,1016.73
2019-03-31T01:52:18.644Z,1016.73
2019-03-31T01:53:18.616Z,1016.76
2019-03-31T01:54:18.607Z,1016.73
2019-03-31T01:55:18.604Z,1016.75
2019-03-31T01:56:18.584Z,1016.82
2019-03-31T01:57:18.605Z,1016.81
2019-03-31T01:58:18.564Z,1016.83
2019-03-31T01:59:18.565Z,1016.84
2019-03-31T02:00:18.551Z,1016.86
2019-03-31T02:01:18.535Z,1016.83
2019-03-31T02:02:18.521Z,1016.85
2019-03-31T02:03:18.532Z,1016.90
2019-03-31T02:04:18.501Z,1016.87
2019-03-31T02:05:18.492Z,1016.87
2019-03-31T02:06:18.479Z,1016.81
2019-03-31T02:07:18.469Z,1016.80
2019-03-31T02:08:18.477Z,1016.80
2019-03-31T02:09:18.460Z,1016.77
2019-03-31T02:10:18.458Z,1016.83
2019-03-31T02:11:18.428Z,1016.81
2019-03-31T02:12:18.426Z,1016.84
2019-03-31T02:13:18.428Z,1016.75
2019-03-31T02:14:18.393Z,1016.80
2019-03-31T02:15:18.404Z,1016.81
2019-03-31T02:16:18.380Z,1016.74
2019-03-31T02:17:18.371Z,1016.72
2019-03-31T02:18:18.375Z,1016.72
2019-03-31T02:19:18.342Z,1016.72
2019-03-31T02:20:18.340Z,1016.72
2019-03-31T02:21:18.340Z,1016.77
2019-03-31T02:22:18.313Z,1016.76
2019-03-31T02:23:18.320Z,1016.73
2019-03-31T02:24:18.297Z,1016.73
2019-03-31T02:25:18.282Z,1016.70
2019-03-31T02:26:18.270Z,1016.70
2019-03-31T02:27:18.262Z,1016.72
2019-03-31T02:28:18.267Z,1016.73
2019-03-31T02:29:18.242Z,1016.66
2019-03-31T02:30:18.233Z,1016.64
2019-03-31T02:31:18.225Z,1016.69
2019-03-31T02:32:24.310Z,1016.68
2019-03-31T02:33:19.223Z,1016.65
2019-03-31T02:34:18.188Z,1016.67
2019-03-31T02:35:18.173Z,1016.68
2019-03-31T02:36:18.186Z,1016.66
2019-03-31T02:37:18.152Z,1016.64
2019-03-31T02:38:18.165Z,1016.66
2019-03-31T02:39:18.151Z,1016.62
2019-03-31T02:40:18.124Z,1016.66
2019-03-31T02:41:18.111Z,1016.68
2019-03-31T02:42:18.100Z,1016.72
2019-03-31T02:43:18.107Z,1016.77
2019-03-31T02:44:18.081Z,1016.78
2019-03-31T02:45:18.072Z,1016.79
2019-03-31T02:46:18.060Z,1016.80
2019-03-31T02:47:18.051Z,1016.80
2019-03-31T02:48:18.059Z,1016.75
2019-03-31T02:49:18.030Z,1016.79
2019-03-31T02:50:18.016Z,1016.80
2019-03-31T02:51:18.006Z,1016.74
2019-03-31T02:52:17.997Z,1016.75
2019-03-31T02:53:18.004Z,1016.80
2019-03-31T02:54:17.981Z,1016.75
2019-03-31T02:55:17.970Z,1016.68
2019-03-31T02:56:17.976Z,1016.67
2019-03-31T02:57:17.990Z,1016.70
2019-03-31T02:58:17.966Z,1016.72
2019-03-31T02:59:17.939Z,1016.75
2019-03-31T03:00:17.913Z,1016.72
2019-03-31T03:01:17.902Z,1016.79
2019-03-31T03:02:17.910Z,1016.76
2019-03-31T03:03:17.907Z,1016.77
2019-03-31T03:04:17.875Z,1016.75
2019-03-31T03:05:20.234Z,1016.75
2019-03-31T03:06:17.851Z,1016.73
2019-03-31T03:07:17.840Z,1016.77
2019-03-31T03:08:17.835Z,1016.71
2019-03-31T03:09:17.848Z,1016.77
2019-03-31T03:10:17.809Z,1016.77
2019-03-31T03:11:17.807Z,1016.73
2019-03-31T03:12:17.789Z,1016.82
2019-03-31T03:13:17.779Z,1016.74
2019-03-31T03:14:17.788Z,1016.75
2019-03-31T03:15:17.758Z,1016.81
2019-03-31T03:16:17.758Z,1016.72
2019-03-31T03:17:17.739Z,1016.82
2019-03-31T03:18:17.729Z,1016.77
2019-03-31T03:19:17.759Z,1016.77
2019-03-31T03:20:17.705Z,1016.78
2019-03-31T03:21:17.714Z,1016.78
2019-03-31T03:22:17.692Z,1016.76
2019-03-31T03:23:17.678Z,1016.76
2019-03-31T03:24:17.711Z,1016.80
2019-03-31T03:25:17.653Z,1016.80
2019-03-31T03:26:17.651Z,1016.78
2019-03-31T03:27:17.630Z,1016.81
2019-03-31T03:28:17.617Z,1016.84
2019-03-31T03:29:17.610Z,1016.81
2019-03-31T03:30:17.810Z,1016.78
2019-03-31T03:31:17.772Z,1016.82
2019-03-31T03:32:17.617Z,1016.87
2019-03-31T03:33:18.513Z,1016.83
2019-03-31T03:34:17.559Z,1016.77
2019-03-31T03:35:17.568Z,1016.83
2019-03-31T03:36:17.576Z,1016.80
2019-03-31T03:37:17.523Z,1016.80
2019-03-31T03:38:17.543Z,1016.80
2019-03-31T03:39:17.502Z,1016.77
2019-03-31T03:40:17.517Z,1016.78
2019-03-31T03:41:17.494Z,1016.83
2019-03-31T03:42:17.483Z,1016.82
2019-03-31T03:43:17.463Z,1016.76
2019-03-31T03:44:17.452Z,1016.72
2019-03-31T03:45:17.490Z,1016.70
2019-03-31T03:46:17.431Z,1016.72
2019-03-31T03:47:17.429Z,1016.75
2019-03-31T03:48:17.414Z,1016.77
2019-03-31T03:49:17.606Z,1016.84
2019-03-31T03:50:17.414Z,1016.81
2019-03-31T03:51:17.383Z,1016.82
2019-03-31T03:52:17.368Z,1016.87
2019-03-31T03:53:17.390Z,1016.92
2019-03-31T03:54:17.353Z,1016.86
2019-03-31T03:55:17.340Z,1016.88
2019-03-31T03:56:17.350Z,1016.91
2019-03-31T03:57:17.317Z,1017.01
2019-03-31T03:58:17.309Z,1017.00
2019-03-31T03:59:17.300Z,1017.04
2019-03-31T04:00:17.285Z,1017.03
2019-03-31T04:01:17.308Z,1016.98
2019-03-31T04:02:17.279Z,1017.06
2019-03-31T04:03:29.774Z,1016.96
2019-03-31T04:04:18.240Z,1016.99
2019-03-31T04:05:17.236Z,1017.01
2019-03-31T04:06:17.243Z,1016.96
2019-03-31T04:07:17.209Z,1017.03
2019-03-31T04:08:17.204Z,1016.96
2019-03-31T04:09:17.187Z,1017.03
2019-03-31T04:10:17.186Z,1017.01
2019-03-31T04:11:21.132Z,1017.02
2019-03-31T04:12:17.163Z,1016.96
2019-03-31T04:13:17.144Z,1016.95
2019-03-31T04:14:17.144Z,1017.02
2019-03-31T04:15:17.129Z,1016.96
2019-03-31T04:16:17.136Z,1017.02
2019-03-31T04:17:17.102Z,1017.03
2019-03-31T04:18:17.092Z,1016.94
2019-03-31T04:19:17.113Z,1016.95
2019-03-31T04:20:17.071Z,1016.94
2019-03-31T04:21:17.067Z,1016.93
2019-03-31T04:22:17.069Z,1016.93
2019-03-31T04:23:17.048Z,1016.91
2019-03-31T04:24:17.028Z,1016.88
2019-03-31T04:25:17.016Z,1016.91
2019-03-31T04:26:17.068Z,1016.96
2019-03-31T04:27:19.053Z,1016.97
2019-03-31T04:28:16.989Z,1016.93
2019-03-31T04:29:16.973Z,1016.98
2019-03-31T04:30:16.966Z,1016.98
2019-03-31T04:31:17.010Z,1017.08
2019-03-31T04:32:16.965Z,1017.01
2019-03-31T04:33:16.942Z,1017.08
2019-03-31T04:34:17.143Z,1017.07
2019-03-31T04:35:16.921Z,1017.16
2019-03-31T04:36:16.902Z,1017.19
2019-03-31T04:37:16.933Z,1017.10
2019-03-31T04:38:16.889Z,1017.06
2019-03-31T04:39:16.871Z,1017.12
2019-03-31T04:40:16.860Z,1017.16
2019-03-31T04:41:16.856Z,1017.19
2019-03-31T04:42:16.839Z,1017.16
2019-03-31T04:43:16.851Z,1017.19
2019-03-31T04:44:16.818Z,1017.17
2019-03-31T04:45:16.812Z,1017.18
2019-03-31T04:46:16.799Z,1017.20
2019-03-31T04:47:16.788Z,1017.21
2019-03-31T04:48:16.805Z,1017.21
2019-03-31T04:49:16.765Z,1017.25
2019-03-31T04:50:16.755Z,1017.29
2019-03-31T04:51:16.745Z,1017.32
2019-03-31T04:52:16.772Z,1017.31
2019-03-31T04:53:16.745Z,1017.27
2019-03-31T04:54:16.713Z,1017.31
2019-03-31T04:55:16.704Z,1017.33
2019-03-31T04:56:16.691Z,1017.32
2019-03-31T04:57:16.681Z,1017.35
2019-03-31T04:58:16.696Z,1017.29
2019-03-31T04:59:16.659Z,1017.28
2019-03-31T05:00:16.649Z,1017.28
2019-03-31T05:01:16.642Z,1017.33
2019-03-31T05:02:16.628Z,1017.34
2019-03-31T05:03:16.671Z,1017.40
2019-03-31T05:04:16.611Z,1017.41
2019-03-31T05:05:16.600Z,1017.34
2019-03-31T05:06:16.588Z,1017.38
2019-03-31T05:07:16.590Z,1017.43
2019-03-31T05:08:16.570Z,1017.45
2019-03-31T05:09:16.574Z,1017.43
2019-03-31T05:10:16.552Z,1017.51
2019-03-31T05:11:16.536Z,1017.44
2019-03-31T05:12:16.934Z,1017.48
2019-03-31T05:13:16.514Z,1017.53
2019-03-31T05:14:16.541Z,1017.54
2019-03-31T05:15:16.512Z,1017.60
2019-03-31T05:16:16.495Z,1017.58
2019-03-31T05:17:16.499Z,1017.58
2019-03-31T05:18:16.465Z,1017.57
2019-03-31T05:19:16.520Z,1017.53
2019-03-31T05:20:16.445Z,1017.52
2019-03-31T05:21:16.430Z,1017.52
2019-03-31T05:22:16.427Z,1017.56
2019-03-31T05:23:16.407Z,1017.55
2019-03-31T05:24:16.426Z,1017.55
2019-03-31T05:25:16.386Z,1017.57
2019-03-31T05:26:16.379Z,1017.55
2019-03-31T05:27:16.366Z,1017.60
2019-03-31T05:28:16.356Z,1017.54
2019-03-31T05:29:16.347Z,1017.58
2019-03-31T05:30:16.354Z,1017.62
2019-03-31T05:31:16.332Z,1017.67
2019-03-31T05:32:16.315Z,1017.71
2019-03-31T05:33:16.310Z,1017.68
2019-03-31T05:34:19.229Z,1017.64
2019-03-31T05:35:16.308Z,1017.70
2019-03-31T05:36:16.272Z,1017.67
2019-03-31T05:37:16.262Z,1017.68
2019-03-31T05:38:16.250Z,1017.69
2019-03-31T05:39:16.241Z,1017.74
2019-03-31T05:40:16.256Z,1017.70
2019-03-31T05:41:16.222Z,1017.72
2019-03-31T05:42:16.216Z,1017.73
2019-03-31T05:43:16.201Z,1017.68
2019-03-31T05:44:16.188Z,1017.77
2019-03-31T05:45:16.208Z,1017.75
2019-03-31T05:46:16.171Z,1017.82
2019-03-31T05:47:16.161Z,1017.78
2019-03-31T05:48:16.153Z,1017.79
2019-03-31T05:49:16.138Z,1017.78
2019-03-31T05:50:16.125Z,1017.79
2019-03-31T05:51:16.138Z,1017.84
2019-03-31T05:52:16.104Z,1017.85
2019-03-31T05:53:16.099Z,1017.87
2019-03-31T05:54:16.095Z,1017.82
2019-03-31T05:55:18.773Z,1017.84
2019-03-31T05:56:16.131Z,1017.84
2019-03-31T05:57:16.059Z,1017.78
2019-03-31T05:58:16.044Z,1017.87
2019-03-31T05:59:16.035Z,1017.83
2019-03-31T06:00:16.029Z,1017.85
2019-03-31T06:01:16.036Z,1017.90
2019-03-31T06:02:16.001Z,1017.86
2019-03-31T06:03:15.995Z,1017.89
2019-03-31T06:04:15.984Z,1017.88
2019-03-31T06:05:15.973Z,1017.85
2019-03-31T06:06:15.989Z,1017.85
2019-03-31T06:07:15.951Z,1017.90
2019-03-31T06:08:15.941Z,1017.92
2019-03-31T06:09:15.939Z,1017.95
2019-03-31T06:10:15.918Z,1017.92
2019-03-31T06:11:15.960Z,1017.95
2019-03-31T06:12:15.900Z,1017.97
2019-03-31T06:13:15.887Z,1017.96
2019-03-31T06:14:15.880Z,1017.96
2019-03-31T06:15:15.862Z,1017.96
2019-03-31T06:16:15.893Z,1017.94
2019-03-31T06:17:15.848Z,1017.92
2019-03-31T06:18:15.838Z,1017.93
2019-03-31T06:19:15.828Z,1017.98
2019-03-31T06:20:15.809Z,1017.94
2019-03-31T06:21:15.804Z,1017.91
2019-03-31T06:22:15.858Z,1017.87
2019-03-31T06:23:15.794Z,1017.92
2019-03-31T06:24:15.767Z,1017.93
2019-03-31T06:25:15.769Z,1017.91
2019-03-31T06:26:15.753Z,1017.96
2019-03-31T06:27:16.008Z,1017.93
2019-03-31T06:28:15.729Z,1017.92
2019-03-31T06:29:15.719Z,1017.96
2019-03-31T06:30:15.732Z,1017.96
2019-03-31T06:31:15.696Z,1018.00
2019-03-31T06:32:15.703Z,1017.98
2019-03-31T06:33:15.676Z,1017.99
2019-03-31T06:34:15.664Z,1017.99
2019-03-31T06:35:15.656Z,1017.96
2019-03-31T06:36:15.655Z,1017.97
2019-03-31T06:37:15.655Z,1018.05
2019-03-31T06:38:15.623Z,1018.02
2019-03-31T06:39:15.616Z,1017.99
2019-03-31T06:40:15.609Z,1017.98
2019-03-31T06:41:15.595Z,1018.00
2019-03-31T06:42:15.606Z,1018.04
2019-03-31T06:43:15.571Z,1018.07
2019-03-31T06:44:15.565Z,1018.09
2019-03-31T06:45:15.547Z,1018.10
2019-03-31T06:46:15.544Z,1018.11
2019-03-31T06:47:15.533Z,1018.17
2019-03-31T06:48:15.534Z,1018.20
2019-03-31T06:49:15.511Z,1018.23
2019-03-31T06:50:15.499Z,1018.23
2019-03-31T06:51:17.103Z,1018.19
2019-03-31T06:52:15.473Z,1018.20
2019-03-31T06:53:15.484Z,1018.18
2019-03-31T06:54:15.458Z,1018.23
2019-03-31T06:55:15.448Z,1018.21
2019-03-31T06:56:15.435Z,1018.20
2019-03-31T06:57:15.424Z,1018.23
2019-03-31T06:58:15.438Z,1018.19
2019-03-31T06:59:15.400Z,1018.20
2019-03-31T07:00:15.431Z,1018.19
2019-03-31T07:01:15.402Z,1018.21
2019-03-31T07:02:15.368Z,1018.22
2019-03-31T07:03:15.362Z,1018.22
2019-03-31T07:04:15.366Z,1018.26
2019-03-31T07:05:15.343Z,1018.22
2019-03-31T07:06:15.326Z,1018.22
2019-03-31T07:07:15.319Z,1018.25
2019-03-31T07:08:15.309Z,1018.24
2019-03-31T07:09:15.318Z,1018.23
2019-03-31T07:10:15.291Z,1018.31
2019-03-31T07:11:15.279Z,1018.26
2019-03-31T07:12:15.265Z,1018.25
2019-03-31T07:13:15.257Z,1018.23
2019-03-31T07:14:15.273Z,1018.25
2019-03-31T07:15:15.231Z,1018.28
2019-03-31T07:16:15.252Z,1018.23
2019-03-31T07:17:15.211Z,1018.25
2019-03-31T07:18:16.050Z,1018.28
2019-03-31T07:19:15.204Z,1018.25
2019-03-31T07:20:15.200Z,1018.31
2019-03-31T07:21:15.177Z,1018.28
2019-03-31T07:22:15.156Z,1018.30
2019-03-31T07:23:15.149Z,1018.27
2019-03-31T07:24:15.139Z,1018.31
2019-03-31T07:25:15.146Z,1018.32
2019-03-31T07:26:15.116Z,1018.27
2019-03-31T07:27:15.109Z,1018.27
2019-03-31T07:28:15.099Z,1018.32
2019-03-31T07:29:15.087Z,1018.29
2019-03-31T07:30:15.105Z,1018.27
2019-03-31T07:31:15.095Z,1018.32
2019-03-31T07:32:15.054Z,1018.35
2019-03-31T07:33:15.053Z,1018.33
2019-03-31T07:34:15.035Z,1018.38
2019-03-31T07:35:18.805Z,1018.36
2019-03-31T07:36:15.062Z,1018.36
2019-03-31T07:37:15.004Z,1018.36
2019-03-31T07:38:14.989Z,1018.39
2019-03-31T07:39:14.987Z,1018.37
2019-03-31T07:40:15.082Z,1018.42
2019-03-31T07:41:15.289Z,1018.39
2019-03-31T07:42:14.974Z,1018.37
2019-03-31T07:43:15.124Z,1018.42
2019-03-31T07:44:15.477Z,1018.40
2019-03-31T07:45:14.915Z,1018.42
2019-03-31T07:46:14.924Z,1018.47
2019-03-31T07:47:14.899Z,1018.52
2019-03-31T07:48:14.895Z,1018.46
2019-03-31T07:49:14.898Z,1018.45
2019-03-31T07:50:14.862Z,1018.50
2019-03-31T07:51:14.871Z,1018.48
2019-03-31T07:52:14.841Z,1018.51
2019-03-31T07:53:14.833Z,1018.52
2019-03-31T07:54:14.828Z,1018.58
2019-03-31T07:55:14.827Z,1018.55
2019-03-31T07:56:16.231Z,1018.55
2019-03-31T07:57:14.792Z,1018.57
2019-03-31T07:58:14.804Z,1018.62
2019-03-31T07:59:14.781Z,1018.58
2019-03-31T08:00:14.759Z,1018.55
2019-03-31T08:01:14.828Z,1018.66
2019-03-31T08:02:14.736Z,1018.63
2019-03-31T08:03:14.729Z,1018.63
2019-03-31T08:04:14.717Z,1018.60
2019-03-31T08:05:14.707Z,1018.65
2019-03-31T08:06:14.695Z,1018.64
2019-03-31T08:07:14.702Z,1018.68
2019-03-31T08:08:14.674Z,1018.64
2019-03-31T08:09:14.665Z,1018.67
2019-03-31T08:10:14.651Z,1018.68
2019-03-31T08:11:17.083Z,1018.74
2019-03-31T08:12:14.630Z,1018.79
2019-03-31T08:13:14.619Z,1018.76
2019-03-31T08:14:14.612Z,1018.74
2019-03-31T08:15:14.598Z,1018.77
2019-03-31T08:16:14.608Z,1018.80
2019-03-31T08:17:14.577Z,1018.77
2019-03-31T08:18:14.567Z,1018.80
2019-03-31T08:19:14.557Z,1018.86
2019-03-31T08:20:14.545Z,1018.80
2019-03-31T08:21:14.539Z,1018.80
2019-03-31T08:22:14.543Z,1018.77
2019-03-31T08:23:14.516Z,1018.79
2019-03-31T08:24:14.507Z,1018.77
2019-03-31T08:25:14.495Z,1018.76
2019-03-31T08:26:14.533Z,1018.78
2019-03-31T08:27:14.495Z,1018.83
2019-03-31T08:28:14.462Z,1018.83
2019-03-31T08:29:14.456Z,1018.82
2019-03-31T08:30:14.441Z,1018.84
2019-03-31T08:31:14.431Z,1018.85
2019-03-31T08:32:14.437Z,1018.86
2019-03-31T08:33:14.409Z,1018.87
2019-03-31T08:34:14.400Z,1018.87
2019-03-31T08:35:14.386Z,1018.83
2019-03-31T08:36:14.377Z,1018.89
2019-03-31T08:37:14.405Z,1018.95
2019-03-31T08:38:14.359Z,1018.89
2019-03-31T08:39:14.349Z,1018.94
2019-03-31T08:40:14.340Z,1019.02
2019-03-31T08:41:14.324Z,1018.99
2019-03-31T08:42:14.314Z,1019.04
2019-03-31T08:43:14.331Z,1019.08
2019-03-31T08:44:14.293Z,1018.95
2019-03-31T08:45:14.283Z,1018.97
2019-03-31T08:46:14.278Z,1019.01
2019-03-31T08:47:14.260Z,1018.95
2019-03-31T08:48:14.274Z,1019.00
2019-03-31T08:49:14.248Z,1019.02
2019-03-31T08:50:14.229Z,1019.02
2019-03-31T08:51:14.218Z,1019.12
2019-03-31T08:52:14.207Z,1019.10
2019-03-31T08:53:14.233Z,1019.03
2019-03-31T08:54:14.187Z,1019.08
2019-03-31T08:55:14.179Z,1019.10
2019-03-31T08:56:14.194Z,1019.10
2019-03-31T08:57:14.175Z,1019.10
2019-03-31T08:58:14.146Z,1019.08
2019-03-31T08:59:14.152Z,1019.08
2019-03-31T09:00:14.126Z,1019.11
2019-03-31T09:01:14.121Z,1019.17
2019-03-31T09:02:14.103Z,1019.15
2019-03-31T09:03:14.092Z,1019.14
2019-03-31T09:04:14.104Z,1019.15
2019-03-31T09:05:14.071Z,1019.13
2019-03-31T09:06:14.059Z,1019.19
2019-03-31T09:07:14.055Z,1019.17
2019-03-31T09:08:14.041Z,1019.18
2019-03-31T09:09:14.059Z,1019.24
2019-03-31T09:10:14.023Z,1019.23
2019-03-31T09:11:14.011Z,1019.22
2019-03-31T09:12:14.008Z,1019.25
2019-03-31T09:13:13.988Z,1019.28
2019-03-31T09:14:14.004Z,1019.28
2019-03-31T09:15:13.972Z,1019.31
2019-03-31T09:16:13.962Z,1019.33
2019-03-31T09:17:13.972Z,1019.30
2019-03-31T09:18:13.935Z,1019.30
2019-03-31T09:19:13.927Z,1019.31
2019-03-31T09:20:13.931Z,1019.32
2019-03-31T09:21:13.904Z,1019.33
2019-03-31T09:22:13.896Z,1019.32
2019-03-31T09:23:13.882Z,1019.33
2019-03-31T09:24:13.877Z,1019.32
2019-03-31T09:25:13.885Z,1019.31
2019-03-31T09:26:13.848Z,1019.28
2019-03-31T09:27:13.841Z,1019.29
2019-03-31T09:28:13.831Z,1019.32
2019-03-31T09:29:13.908Z,1019.34
2019-03-31T09:30:13.832Z,1019.43
2019-03-31T09:31:13.798Z,1019.40
2019-03-31T09:32:13.788Z,1019.35
2019-03-31T09:33:13.777Z,1019.35
2019-03-31T09:34:13.771Z,1019.37
2019-03-31T09:35:13.763Z,1019.42
2019-03-31T09:36:16.488Z,1019.43
2019-03-31T09:37:13.761Z,1019.44
2019-03-31T09:38:13.727Z,1019.42
2019-03-31T09:39:13.712Z,1019.44
2019-03-31T09:40:13.706Z,1019.42
2019-03-31T09:41:13.709Z,1019.48
2019-03-31T09:42:13.686Z,1019.48
2019-03-31T09:43:13.678Z,1019.52
2019-03-31T09:44:13.665Z,1019.53
2019-03-31T09:45:13.652Z,1019.53
2019-03-31T09:46:13.660Z,1019.53
2019-03-31T09:47:13.630Z,1019.50
2019-03-31T09:48:13.617Z,1019.52
2019-03-31T09:49:13.612Z,1019.53
2019-03-31T09:50:17.013Z,1019.55
2019-03-31T09:51:13.615Z,1019.50
2019-03-31T09:52:13.577Z,1019.48
2019-03-31T09:53:13.567Z,1019.48
2019-03-31T09:54:13.556Z,1019.40
2019-03-31T09:55:13.548Z,1019.40
2019-03-31T09:56:15.189Z,1019.41
2019-03-31T09:57:13.542Z,1019.41
2019-03-31T09:58:13.534Z,1019.40
2019-03-31T09:59:13.502Z,1019.37
2019-03-31T10:00:13.495Z,1019.41
2019-03-31T10:01:13.483Z,1019.38
2019-03-31T10:02:13.498Z,1019.34
2019-03-31T10:03:13.464Z,1019.39
2019-03-31T10:04:13.476Z,1019.42
2019-03-31T10:05:13.446Z,1019.38
2019-03-31T10:06:13.440Z,1019.40
2019-03-31T10:07:13.503Z,1019.43
2019-03-31T10:08:13.414Z,1019.45
2019-03-31T10:09:13.400Z,1019.47
2019-03-31T10:10:13.387Z,1019.48
2019-03-31T10:11:13.382Z,1019.52
2019-03-31T10:12:13.366Z,1019.53
2019-03-31T10:13:13.374Z,1019.57
2019-03-31T10:14:13.348Z,1019.57
2019-03-31T10:15:13.339Z,1019.59
2019-03-31T10:16:13.346Z,1019.57
2019-03-31T10:17:13.311Z,1019.56
2019-03-31T10:18:13.323Z,1019.50
2019-03-31T10:19:13.292Z,1019.60
2019-03-31T10:20:13.287Z,1019.57
2019-03-31T10:21:13.270Z,1019.56
2019-03-31T10:22:13.259Z,1019.56
2019-03-31T10:23:13.275Z,1019.61
2019-03-31T10:24:13.239Z,1019.62
2019-03-31T10:25:13.545Z,1019.61
2019-03-31T10:26:15.988Z,1019.65
2019-03-31T10:27:13.207Z,1019.61
2019-03-31T10:28:13.248Z,1019.67
2019-03-31T10:29:13.195Z,1019.63
2019-03-31T10:30:13.180Z,1019.63
2019-03-31T10:31:13.185Z,1019.66
2019-03-31T10:32:13.157Z,1019.66
2019-03-31T10:33:13.146Z,1019.66
2019-03-31T10:34:13.157Z,1019.68
2019-03-31T10:35:13.140Z,1019.68
2019-03-31T10:36:13.113Z,1019.69
2019-03-31T10:37:13.126Z,1019.66
2019-03-31T10:38:13.106Z,1019.65
2019-03-31T10:39:13.105Z,1019.69
2019-03-31T10:40:13.072Z,1019.65
2019-03-31T10:41:13.067Z,1019.70
2019-03-31T10:42:13.048Z,1019.71
2019-03-31T10:43:13.038Z,1019.69
2019-03-31T10:44:13.049Z,1019.71
2019-03-31T10:45:13.021Z,1019.70
2019-03-31T10:46:13.009Z,1019.71
2019-03-31T10:47:12.999Z,1019.76
2019-03-31T10:48:20.437Z,1019.70
2019-03-31T10:49:14.039Z,1019.73
2019-03-31T10:50:12.965Z,1019.73
2019-03-31T10:51:12.958Z,1019.81
2019-03-31T10:52:12.998Z,1019.78
2019-03-31T10:53:12.936Z,1019.80
2019-03-31T10:54:12.966Z,1019.79
2019-03-31T10:55:12.918Z,1019.73
2019-03-31T10:56:12.914Z,1019.79
2019-03-31T10:57:12.950Z,1019.80
2019-03-31T10:58:12.882Z,1019.77
2019-03-31T10:59:12.870Z,1019.81
2019-03-31T11:00:12.879Z,1019.78
2019-03-31T11:01:12.874Z,1019.75
2019-03-31T11:02:12.843Z,1019.72
2019-03-31T11:03:12.828Z,1019.73
2019-03-31T11:04:12.819Z,1019.75
2019-03-31T11:05:12.832Z,1019.78
2019-03-31T11:06:12.804Z,1019.74
2019-03-31T11:07:12.791Z,1019.77
2019-03-31T11:08:12.833Z,1019.80
2019-03-31T11:09:12.765Z,1019.70
2019-03-31T11:10:12.774Z,1019.73
2019-03-31T11:11:12.788Z,1019.71
2019-03-31T11:12:12.731Z,1019.73
2019-03-31T11:13:12.722Z,1019.78
2019-03-31T11:14:12.712Z,1019.75
2019-03-31T11:15:12.877Z,1019.75
2019-03-31T11:16:12.691Z,1019.78
2019-03-31T11:17:12.687Z,1019.70
2019-03-31T11:18:12.680Z,1019.77
2019-03-31T11:19:12.658Z,1019.81
2019-03-31T11:20:12.651Z,1019.73
2019-03-31T11:21:12.662Z,1019.71
2019-03-31T11:22:12.635Z,1019.72
2019-03-31T11:23:12.619Z,1019.76
2019-03-31T11:24:12.606Z,1019.68
2019-03-31T11:25:20.636Z,1019.72
2019-03-31T11:26:13.605Z,1019.77
2019-03-31T11:27:12.580Z,1019.71
2019-03-31T11:28:12.565Z,1019.68
2019-03-31T11:29:12.558Z,1019.70
2019-03-31T11:30:12.547Z,1019.71
2019-03-31T11:31:12.595Z,1019.67
2019-03-31T11:32:12.526Z,1019.69
2019-03-31T11:33:12.512Z,1019.70
2019-03-31T11:34:12.500Z,1019.70
2019-03-31T11:35:12.492Z,1019.69
2019-03-31T11:36:12.481Z,1019.66
2019-03-31T11:37:13.963Z,1019.75
2019-03-31T11:38:12.458Z,1019.72
2019-03-31T11:39:12.452Z,1019.78
2019-03-31T11:40:12.443Z,1019.69
2019-03-31T11:41:12.427Z,1019.74
2019-03-31T11:42:12.439Z,1019.70
2019-03-31T11:43:12.408Z,1019.72
2019-03-31T11:44:12.395Z,1019.69
2019-03-31T11:45:12.431Z,1019.63
2019-03-31T11:46:12.375Z,1019.70
2019-03-31T11:47:12.363Z,1019.66
2019-03-31T11:48:12.374Z,1019.67
2019-03-31T11:49:12.339Z,1019.70
2019-03-31T11:50:12.331Z,1019.76
2019-03-31T11:51:12.323Z,1019.66
2019-03-31T11:52:12.308Z,1019.65
2019-03-31T11:53:12.317Z,1019.71
2019-03-31T11:54:12.288Z,1019.72
2019-03-31T11:55:12.277Z,1019.73
2019-03-31T11:56:12.265Z,1019.75
2019-03-31T11:57:12.258Z,1019.70
2019-03-31T11:58:12.264Z,1019.73
2019-03-31T11:59:12.246Z,1019.66
2019-03-31T12:00:12.224Z,1019.73
2019-03-31T12:01:12.216Z,1019.78
2019-03-31T12:02:26.116Z,1019.81
2019-03-31T12:03:13.222Z,1019.73
2019-03-31T12:04:12.180Z,1019.80
2019-03-31T12:05:12.177Z,1019.76